sensor_id;sensor_type;location;lat;lon;timestamp;temperature;humidity
69715;HTU21D;56981;53.532;49.398;2023-08-06T00:01:59;23.76;74.13
69715;HTU21D;56981;53.532;49.398;2023-08-06T00:04:30;23.73;74.16
69715;HTU21D;56981;53.532;49.398;2023-08-06T00:07:01;23.69;74.25
69715;HTU21D;56981;53.532;49.398;2023-08-06T00:09:33;23.66;74.19
69715;HTU21D;56981;53.532;49.398;2023-08-06T00:12:04;23.62;74.19
69715;HTU21D;56981;53.532;49.398;2023-08-06T00:14:36;23.59;74.41
69715;HTU21D;56981;53.532;49.398;2023-08-06T00:17:07;23.58;74.47
69715;HTU21D;56981;53.532;49.398;2023-08-06T00:19:38;23.57;74.49
69715;HTU21D;56981;53.532;49.398;2023-08-06T00:22:09;23.57;74.47
69715;HTU21D;56981;53.532;49.398;2023-08-06T00:24:41;23.54;74.51
69715;HTU21D;56981;53.532;49.398;2023-08-06T00:27:12;23.53;74.38
69715;HTU21D;56981;53.532;49.398;2023-08-06T00:29:43;23.52;74.35
69715;HTU21D;56981;53.532;49.398;2023-08-06T00:32:14;23.49;74.57
69715;HTU21D;56981;53.532;49.398;2023-08-06T00:34:46;23.44;74.57
69715;HTU21D;56981;53.532;49.398;2023-08-06T00:37:17;23.44;74.67
69715;HTU21D;56981;53.532;49.398;2023-08-06T00:39:48;23.44;75.12
69715;HTU21D;56981;53.532;49.398;2023-08-06T00:42:20;23.40;74.73
69715;HTU21D;56981;53.532;49.398;2023-08-06T00:44:52;23.35;75.05
69715;HTU21D;56981;53.532;49.398;2023-08-06T00:47:23;23.31;75.02
69715;HTU21D;56981;53.532;49.398;2023-08-06T00:49:55;23.29;75.20
69715;HTU21D;56981;53.532;49.398;2023-08-06T00:52:26;23.24;75.40
69715;HTU21D;56981;53.532;49.398;2023-08-06T00:54:57;23.27;75.38
69715;HTU21D;56981;53.532;49.398;2023-08-06T00:57:28;23.23;75.34
69715;HTU21D;56981;53.532;49.398;2023-08-06T01:00:00;23.16;75.71
69715;HTU21D;56981;53.532;49.398;2023-08-06T01:02:31;23.09;75.83
69715;HTU21D;56981;53.532;49.398;2023-08-06T01:05:02;23.10;75.93
69715;HTU21D;56981;53.532;49.398;2023-08-06T01:10:49;23.06;76.32
69715;HTU21D;56981;53.532;49.398;2023-08-06T01:13:36;23.06;76.27
69715;HTU21D;56981;53.532;49.398;2023-08-06T01:16:10;23.06;75.90
69715;HTU21D;56981;53.532;49.398;2023-08-06T01:18:42;23.08;76.09
69715;HTU21D;56981;53.532;49.398;2023-08-06T01:21:18;23.08;76.17
69715;HTU21D;56981;53.532;49.398;2023-08-06T01:23:49;23.11;75.79
69715;HTU21D;56981;53.532;49.398;2023-08-06T01:26:30;23.12;75.92
69715;HTU21D;56981;53.532;49.398;2023-08-06T01:29:16;23.27;75.49
69715;HTU21D;56981;53.532;49.398;2023-08-06T01:31:50;23.64;73.97
69715;HTU21D;56981;53.532;49.398;2023-08-06T01:34:24;23.96;72.56
69715;HTU21D;56981;53.532;49.398;2023-08-06T01:36:56;24.33;71.09
69715;HTU21D;56981;53.532;49.398;2023-08-06T01:39:28;24.62;69.78
69715;HTU21D;56981;53.532;49.398;2023-08-06T01:42:00;24.94;68.71
69715;HTU21D;56981;53.532;49.398;2023-08-06T01:44:31;25.31;67.04
69715;HTU21D;56981;53.532;49.398;2023-08-06T01:47:03;25.58;66.08
69715;HTU21D;56981;53.532;49.398;2023-08-06T01:49:34;25.80;65.11
69715;HTU21D;56981;53.532;49.398;2023-08-06T01:52:09;26.09;64.18
69715;HTU21D;56981;53.532;49.398;2023-08-06T01:54:40;26.35;63.35
69715;HTU21D;56981;53.532;49.398;2023-08-06T01:57:12;26.57;62.27
69715;HTU21D;56981;53.532;49.398;2023-08-06T01:59:43;26.73;61.57
69715;HTU21D;56981;53.532;49.398;2023-08-06T02:02:14;27.00;60.64
69715;HTU21D;56981;53.532;49.398;2023-08-06T02:04:45;27.17;60.02
69715;HTU21D;56981;53.532;49.398;2023-08-06T02:07:17;27.68;58.60
69715;HTU21D;56981;53.532;49.398;2023-08-06T02:09:48;27.90;57.15
69715;HTU21D;56981;53.532;49.398;2023-08-06T02:12:19;28.09;56.87
69715;HTU21D;56981;53.532;49.398;2023-08-06T02:14:51;28.21;56.22
69715;HTU21D;56981;53.532;49.398;2023-08-06T02:17:22;28.46;55.59
69715;HTU21D;56981;53.532;49.398;2023-08-06T02:19:53;28.41;55.32
69715;HTU21D;56981;53.532;49.398;2023-08-06T02:22:24;28.11;56.20
69715;HTU21D;56981;53.532;49.398;2023-08-06T02:24:56;28.04;56.71
69715;HTU21D;56981;53.532;49.398;2023-08-06T02:27:27;28.63;54.94
69715;HTU21D;56981;53.532;49.398;2023-08-06T02:29:59;28.76;54.40
69715;HTU21D;56981;53.532;49.398;2023-08-06T02:32:30;28.97;53.25
69715;HTU21D;56981;53.532;49.398;2023-08-06T02:35:03;29.51;51.48
69715;HTU21D;56981;53.532;49.398;2023-08-06T02:37:34;30.06;50.50
69715;HTU21D;56981;53.532;49.398;2023-08-06T02:40:06;30.70;48.78
69715;HTU21D;56981;53.532;49.398;2023-08-06T02:42:38;31.12;47.47
69715;HTU21D;56981;53.532;49.398;2023-08-06T02:45:09;31.52;45.90
69715;HTU21D;56981;53.532;49.398;2023-08-06T02:47:40;31.83;45.41
69715;HTU21D;56981;53.532;49.398;2023-08-06T02:50:12;32.20;44.32
69715;HTU21D;56981;53.532;49.398;2023-08-06T02:52:43;32.40;43.61
69715;HTU21D;56981;53.532;49.398;2023-08-06T02:55:14;32.59;42.10
69715;HTU21D;56981;53.532;49.398;2023-08-06T02:57:46;31.14;45.67
69715;HTU21D;56981;53.532;49.398;2023-08-06T03:00:17;31.09;46.34
69715;HTU21D;56981;53.532;49.398;2023-08-06T03:02:48;31.65;44.18
69715;HTU21D;56981;53.532;49.398;2023-08-06T03:05:19;31.80;43.77
69715;HTU21D;56981;53.532;49.398;2023-08-06T03:07:51;32.48;42.12
69715;HTU21D;56981;53.532;49.398;2023-08-06T03:10:22;33.02;41.22
69715;HTU21D;56981;53.532;49.398;2023-08-06T03:12:53;33.40;39.65
69715;HTU21D;56981;53.532;49.398;2023-08-06T03:15:25;33.53;39.04
69715;HTU21D;56981;53.532;49.398;2023-08-06T03:17:56;33.28;39.50
69715;HTU21D;56981;53.532;49.398;2023-08-06T03:20:28;33.43;38.88
69715;HTU21D;56981;53.532;49.398;2023-08-06T03:22:59;33.32;39.34
69715;HTU21D;56981;53.532;49.398;2023-08-06T03:25:30;33.58;38.65
69715;HTU21D;56981;53.532;49.398;2023-08-06T03:28:02;33.65;38.30
69715;HTU21D;56981;53.532;49.398;2023-08-06T03:30:33;33.76;38.33
69715;HTU21D;56981;53.532;49.398;2023-08-06T03:33:05;34.42;37.17
69715;HTU21D;56981;53.532;49.398;2023-08-06T03:35:36;34.49;36.52
69715;HTU21D;56981;53.532;49.398;2023-08-06T03:38:07;35.07;35.60
69715;HTU21D;56981;53.532;49.398;2023-08-06T03:40:38;35.25;35.25
69715;HTU21D;56981;53.532;49.398;2023-08-06T03:43:09;35.50;34.69
69715;HTU21D;56981;53.532;49.398;2023-08-06T03:45:41;35.45;34.35
69715;HTU21D;56981;53.532;49.398;2023-08-06T03:48:12;35.87;33.63
69715;HTU21D;56981;53.532;49.398;2023-08-06T03:50:43;36.57;32.52
69715;HTU21D;56981;53.532;49.398;2023-08-06T03:53:14;36.18;32.76
69715;HTU21D;56981;53.532;49.398;2023-08-06T03:55:45;35.97;32.94
69715;HTU21D;56981;53.532;49.398;2023-08-06T03:58:17;36.17;32.85
69715;HTU21D;56981;53.532;49.398;2023-08-06T04:00:48;36.90;31.75
69715;HTU21D;56981;53.532;49.398;2023-08-06T04:03:19;36.68;31.45
69715;HTU21D;56981;53.532;49.398;2023-08-06T04:05:50;36.67;31.46
69715;HTU21D;56981;53.532;49.398;2023-08-06T04:08:21;36.39;32.28
69715;HTU21D;56981;53.532;49.398;2023-08-06T04:10:53;36.43;31.32
69715;HTU21D;56981;53.532;49.398;2023-08-06T04:13:24;36.63;31.46
69715;HTU21D;56981;53.532;49.398;2023-08-06T04:15:55;36.70;31.10
69715;HTU21D;56981;53.532;49.398;2023-08-06T04:18:31;36.24;31.80
69715;HTU21D;56981;53.532;49.398;2023-08-06T04:21:03;36.19;31.69
69715;HTU21D;56981;53.532;49.398;2023-08-06T04:23:34;36.00;31.56
69715;HTU21D;56981;53.532;49.398;2023-08-06T04:26:05;36.84;30.10
69715;HTU21D;56981;53.532;49.398;2023-08-06T04:28:36;36.84;29.93
69715;HTU21D;56981;53.532;49.398;2023-08-06T04:31:08;37.16;29.87
69715;HTU21D;56981;53.532;49.398;2023-08-06T04:33:39;37.02;29.80
69715;HTU21D;56981;53.532;49.398;2023-08-06T04:36:12;37.06;28.98
69715;HTU21D;56981;53.532;49.398;2023-08-06T04:38:43;37.07;28.59
69715;HTU21D;56981;53.532;49.398;2023-08-06T04:41:16;37.54;27.85
69715;HTU21D;56981;53.532;49.398;2023-08-06T04:43:47;37.41;27.81
69715;HTU21D;56981;53.532;49.398;2023-08-06T04:46:19;37.00;28.03
69715;HTU21D;56981;53.532;49.398;2023-08-06T04:48:50;36.85;27.96
69715;HTU21D;56981;53.532;49.398;2023-08-06T04:51:24;36.81;28.05
69715;HTU21D;56981;53.532;49.398;2023-08-06T04:53:57;36.58;28.49
69715;HTU21D;56981;53.532;49.398;2023-08-06T04:56:28;37.10;28.38
69715;HTU21D;56981;53.532;49.398;2023-08-06T04:59:00;37.76;26.44
69715;HTU21D;56981;53.532;49.398;2023-08-06T05:01:31;37.26;27.47
69715;HTU21D;56981;53.532;49.398;2023-08-06T05:04:03;37.00;26.94
69715;HTU21D;56981;53.532;49.398;2023-08-06T05:06:34;37.27;27.10
69715;HTU21D;56981;53.532;49.398;2023-08-06T05:09:05;36.90;27.42
69715;HTU21D;56981;53.532;49.398;2023-08-06T05:11:37;36.69;27.17
69715;HTU21D;56981;53.532;49.398;2023-08-06T05:14:08;36.80;27.23
69715;HTU21D;56981;53.532;49.398;2023-08-06T05:16:39;36.82;26.62
69715;HTU21D;56981;53.532;49.398;2023-08-06T05:19:10;37.16;26.06
69715;HTU21D;56981;53.532;49.398;2023-08-06T05:21:41;36.75;27.14
69715;HTU21D;56981;53.532;49.398;2023-08-06T05:24:12;36.83;26.96
69715;HTU21D;56981;53.532;49.398;2023-08-06T05:26:44;37.11;26.86
69715;HTU21D;56981;53.532;49.398;2023-08-06T05:29:17;36.98;27.30
69715;HTU21D;56981;53.532;49.398;2023-08-06T05:31:48;37.13;27.39
69715;HTU21D;56981;53.532;49.398;2023-08-06T05:34:20;37.82;26.33
69715;HTU21D;56981;53.532;49.398;2023-08-06T05:36:51;37.92;25.78
69715;HTU21D;56981;53.532;49.398;2023-08-06T05:39:23;37.22;27.20
69715;HTU21D;56981;53.532;49.398;2023-08-06T05:41:54;37.45;26.59
69715;HTU21D;56981;53.532;49.398;2023-08-06T05:44:26;37.45;27.42
69715;HTU21D;56981;53.532;49.398;2023-08-06T05:46:57;37.56;27.20
69715;HTU21D;56981;53.532;49.398;2023-08-06T05:49:28;37.84;25.59
69715;HTU21D;56981;53.532;49.398;2023-08-06T05:51:59;37.64;26.01
69715;HTU21D;56981;53.532;49.398;2023-08-06T05:54:31;38.07;25.49
69715;HTU21D;56981;53.532;49.398;2023-08-06T05:57:02;37.46;25.98
69715;HTU21D;56981;53.532;49.398;2023-08-06T05:59:33;37.64;26.31
69715;HTU21D;56981;53.532;49.398;2023-08-06T06:02:05;37.52;25.97
69715;HTU21D;56981;53.532;49.398;2023-08-06T06:04:37;37.80;26.07
69715;HTU21D;56981;53.532;49.398;2023-08-06T06:07:08;38.05;25.94
69715;HTU21D;56981;53.532;49.398;2023-08-06T06:09:39;37.95;25.74
69715;HTU21D;56981;53.532;49.398;2023-08-06T06:12:11;38.08;25.33
69715;HTU21D;56981;53.532;49.398;2023-08-06T06:14:42;38.03;24.91
69715;HTU21D;56981;53.532;49.398;2023-08-06T06:17:13;37.99;25.24
69715;HTU21D;56981;53.532;49.398;2023-08-06T06:19:45;37.64;24.61
69715;HTU21D;56981;53.532;49.398;2023-08-06T06:22:16;37.43;24.85
69715;HTU21D;56981;53.532;49.398;2023-08-06T06:24:47;37.72;25.52
69715;HTU21D;56981;53.532;49.398;2023-08-06T06:27:18;37.92;25.97
69715;HTU21D;56981;53.532;49.398;2023-08-06T06:29:50;37.80;24.89
69715;HTU21D;56981;53.532;49.398;2023-08-06T06:32:22;37.79;25.02
69715;HTU21D;56981;53.532;49.398;2023-08-06T06:34:54;38.02;25.25
69715;HTU21D;56981;53.532;49.398;2023-08-06T06:37:26;37.62;25.83
69715;HTU21D;56981;53.532;49.398;2023-08-06T06:40:02;37.79;25.62
69715;HTU21D;56981;53.532;49.398;2023-08-06T06:42:36;37.65;25.69
69715;HTU21D;56981;53.532;49.398;2023-08-06T06:45:08;37.37;25.65
69715;HTU21D;56981;53.532;49.398;2023-08-06T06:47:39;37.27;25.50
69715;HTU21D;56981;53.532;49.398;2023-08-06T06:50:11;37.17;26.24
69715;HTU21D;56981;53.532;49.398;2023-08-06T06:52:42;37.48;25.96
69715;HTU21D;56981;53.532;49.398;2023-08-06T06:55:13;37.35;26.37
69715;HTU21D;56981;53.532;49.398;2023-08-06T06:57:44;37.52;25.41
69715;HTU21D;56981;53.532;49.398;2023-08-06T07:00:15;37.58;24.74
69715;HTU21D;56981;53.532;49.398;2023-08-06T07:02:47;37.13;25.36
69715;HTU21D;56981;53.532;49.398;2023-08-06T07:05:18;37.04;24.98
69715;HTU21D;56981;53.532;49.398;2023-08-06T07:07:49;37.04;25.42
69715;HTU21D;56981;53.532;49.398;2023-08-06T07:10:21;37.49;25.07
69715;HTU21D;56981;53.532;49.398;2023-08-06T07:12:52;37.20;24.82
69715;HTU21D;56981;53.532;49.398;2023-08-06T07:15:23;36.90;25.40
69715;HTU21D;56981;53.532;49.398;2023-08-06T07:17:54;37.03;25.12
69715;HTU21D;56981;53.532;49.398;2023-08-06T07:20:25;37.47;24.91
69715;HTU21D;56981;53.532;49.398;2023-08-06T07:22:58;37.69;24.64
69715;HTU21D;56981;53.532;49.398;2023-08-06T07:25:29;37.52;25.73
69715;HTU21D;56981;53.532;49.398;2023-08-06T07:28:00;37.96;24.74
69715;HTU21D;56981;53.532;49.398;2023-08-06T07:30:33;37.25;24.02
69715;HTU21D;56981;53.532;49.398;2023-08-06T07:33:04;37.13;25.18
69715;HTU21D;56981;53.532;49.398;2023-08-06T07:35:36;37.28;24.38
69715;HTU21D;56981;53.532;49.398;2023-08-06T07:38:07;37.11;25.27
69715;HTU21D;56981;53.532;49.398;2023-08-06T07:40:38;36.95;24.96
69715;HTU21D;56981;53.532;49.398;2023-08-06T07:43:09;36.90;26.00
69715;HTU21D;56981;53.532;49.398;2023-08-06T07:45:41;36.90;26.04
69715;HTU21D;56981;53.532;49.398;2023-08-06T07:48:12;36.71;25.73
69715;HTU21D;56981;53.532;49.398;2023-08-06T07:50:43;36.83;25.30
69715;HTU21D;56981;53.532;49.398;2023-08-06T07:53:21;36.52;26.09
69715;HTU21D;56981;53.532;49.398;2023-08-06T07:55:54;36.68;26.71
69715;HTU21D;56981;53.532;49.398;2023-08-06T07:58:25;36.91;26.04
69715;HTU21D;56981;53.532;49.398;2023-08-06T08:00:59;36.80;25.78
69715;HTU21D;56981;53.532;49.398;2023-08-06T08:03:30;36.44;25.78
69715;HTU21D;56981;53.532;49.398;2023-08-06T08:06:03;36.62;25.63
69715;HTU21D;56981;53.532;49.398;2023-08-06T08:08:35;36.58;25.63
69715;HTU21D;56981;53.532;49.398;2023-08-06T08:11:09;36.07;26.63
69715;HTU21D;56981;53.532;49.398;2023-08-06T08:13:40;36.19;26.97
69715;HTU21D;56981;53.532;49.398;2023-08-06T08:16:12;36.01;26.73
69715;HTU21D;56981;53.532;49.398;2023-08-06T08:18:43;36.09;25.74
69715;HTU21D;56981;53.532;49.398;2023-08-06T08:21:14;36.15;26.19
69715;HTU21D;56981;53.532;49.398;2023-08-06T08:23:46;35.97;27.18
69715;HTU21D;56981;53.532;49.398;2023-08-06T08:26:17;35.96;27.29
69715;HTU21D;56981;53.532;49.398;2023-08-06T08:28:49;35.81;27.25
69715;HTU21D;56981;53.532;49.398;2023-08-06T08:31:20;35.95;26.68
69715;HTU21D;56981;53.532;49.398;2023-08-06T08:33:52;36.11;26.82
69715;HTU21D;56981;53.532;49.398;2023-08-06T08:36:24;36.00;25.37
69715;HTU21D;56981;53.532;49.398;2023-08-06T08:38:55;36.28;25.88
69715;HTU21D;56981;53.532;49.398;2023-08-06T08:41:31;36.21;26.20
69715;HTU21D;56981;53.532;49.398;2023-08-06T08:44:02;36.57;27.26
69715;HTU21D;56981;53.532;49.398;2023-08-06T08:46:37;36.73;26.00
69715;HTU21D;56981;53.532;49.398;2023-08-06T08:49:10;35.95;26.37
69715;HTU21D;56981;53.532;49.398;2023-08-06T08:51:43;35.59;26.54
69715;HTU21D;56981;53.532;49.398;2023-08-06T08:54:16;35.66;27.38
69715;HTU21D;56981;53.532;49.398;2023-08-06T08:56:48;35.41;27.64
69715;HTU21D;56981;53.532;49.398;2023-08-06T08:59:19;35.29;28.01
69715;HTU21D;56981;53.532;49.398;2023-08-06T09:01:52;35.00;28.65
69715;HTU21D;56981;53.532;49.398;2023-08-06T09:04:26;34.98;29.16
69715;HTU21D;56981;53.532;49.398;2023-08-06T09:06:59;34.97;28.33
69715;HTU21D;56981;53.532;49.398;2023-08-06T09:09:34;34.69;28.31
69715;HTU21D;56981;53.532;49.398;2023-08-06T09:12:13;34.73;28.69
69715;HTU21D;56981;53.532;49.398;2023-08-06T09:14:45;34.78;30.29
69715;HTU21D;56981;53.532;49.398;2023-08-06T09:17:16;34.88;30.12
69715;HTU21D;56981;53.532;49.398;2023-08-06T09:19:51;34.68;28.67
69715;HTU21D;56981;53.532;49.398;2023-08-06T09:22:23;34.67;28.99
69715;HTU21D;56981;53.532;49.398;2023-08-06T09:24:55;34.40;30.54
69715;HTU21D;56981;53.532;49.398;2023-08-06T09:27:27;34.31;29.02
69715;HTU21D;56981;53.532;49.398;2023-08-06T09:29:59;34.25;29.62
69715;HTU21D;56981;53.532;49.398;2023-08-06T09:32:47;34.08;29.06
69715;HTU21D;56981;53.532;49.398;2023-08-06T09:35:18;34.08;31.12
69715;HTU21D;56981;53.532;49.398;2023-08-06T09:37:50;34.00;30.85
69715;HTU21D;56981;53.532;49.398;2023-08-06T09:40:26;33.91;30.87
69715;HTU21D;56981;53.532;49.398;2023-08-06T09:42:59;33.87;30.32
69715;HTU21D;56981;53.532;49.398;2023-08-06T09:45:35;33.94;31.10
69715;HTU21D;56981;53.532;49.398;2023-08-06T09:48:08;33.89;31.08
69715;HTU21D;56981;53.532;49.398;2023-08-06T09:50:40;33.77;31.53
69715;HTU21D;56981;53.532;49.398;2023-08-06T09:53:12;33.75;31.37
69715;HTU21D;56981;53.532;49.398;2023-08-06T09:55:44;33.96;31.06
69715;HTU21D;56981;53.532;49.398;2023-08-06T09:58:17;34.03;31.70
69715;HTU21D;56981;53.532;49.398;2023-08-06T10:00:48;33.94;31.88
69715;HTU21D;56981;53.532;49.398;2023-08-06T10:03:21;33.88;31.55
69715;HTU21D;56981;53.532;49.398;2023-08-06T10:05:55;33.75;31.98
69715;HTU21D;56981;53.532;49.398;2023-08-06T10:08:27;33.61;32.34
69715;HTU21D;56981;53.532;49.398;2023-08-06T10:10:59;33.47;32.06
69715;HTU21D;56981;53.532;49.398;2023-08-06T10:13:33;33.26;32.17
69715;HTU21D;56981;53.532;49.398;2023-08-06T10:16:05;33.31;31.86
69715;HTU21D;56981;53.532;49.398;2023-08-06T10:18:38;33.25;32.64
69715;HTU21D;56981;53.532;49.398;2023-08-06T10:21:10;33.27;32.97
69715;HTU21D;56981;53.532;49.398;2023-08-06T10:23:42;33.11;31.95
69715;HTU21D;56981;53.532;49.398;2023-08-06T10:26:16;33.04;32.98
69715;HTU21D;56981;53.532;49.398;2023-08-06T10:28:48;33.11;32.92
69715;HTU21D;56981;53.532;49.398;2023-08-06T10:31:19;33.06;32.91
69715;HTU21D;56981;53.532;49.398;2023-08-06T10:33:51;32.72;33.73
69715;HTU21D;56981;53.532;49.398;2023-08-06T10:36:22;32.71;33.88
69715;HTU21D;56981;53.532;49.398;2023-08-06T10:38:50;32.77;34.18
69715;HTU21D;56981;53.532;49.398;2023-08-06T10:41:28;32.73;33.83
69715;HTU21D;56981;53.532;49.398;2023-08-06T10:44:07;32.67;33.60
69715;HTU21D;56981;53.532;49.398;2023-08-06T10:46:34;32.55;32.58
69715;HTU21D;56981;53.532;49.398;2023-08-06T10:49:06;32.41;33.79
69715;HTU21D;56981;53.532;49.398;2023-08-06T10:51:33;32.53;33.31
69715;HTU21D;56981;53.532;49.398;2023-08-06T10:53:59;32.74;33.62
69715;HTU21D;56981;53.532;49.398;2023-08-06T10:56:26;32.90;33.67
69715;HTU21D;56981;53.532;49.398;2023-08-06T10:58:56;32.57;33.22
69715;HTU21D;56981;53.532;49.398;2023-08-06T11:01:23;32.55;33.25
69715;HTU21D;56981;53.532;49.398;2023-08-06T11:03:50;32.53;33.22
69715;HTU21D;56981;53.532;49.398;2023-08-06T11:06:22;32.61;33.34
69715;HTU21D;56981;53.532;49.398;2023-08-06T11:08:53;32.71;33.12
69715;HTU21D;56981;53.532;49.398;2023-08-06T11:11:20;32.63;33.44
69715;HTU21D;56981;53.532;49.398;2023-08-06T11:13:47;32.10;33.53
69715;HTU21D;56981;53.532;49.398;2023-08-06T11:16:15;31.89;34.31
69715;HTU21D;56981;53.532;49.398;2023-08-06T11:18:41;31.76;34.07
69715;HTU21D;56981;53.532;49.398;2023-08-06T11:21:08;31.59;33.82
69715;HTU21D;56981;53.532;49.398;2023-08-06T11:23:35;31.70;33.72
69715;HTU21D;56981;53.532;49.398;2023-08-06T11:26:04;31.76;33.20
69715;HTU21D;56981;53.532;49.398;2023-08-06T11:28:31;31.89;33.04
69715;HTU21D;56981;53.532;49.398;2023-08-06T11:30:58;31.85;32.34
69715;HTU21D;56981;53.532;49.398;2023-08-06T11:33:27;31.85;32.85
69715;HTU21D;56981;53.532;49.398;2023-08-06T11:35:55;31.96;33.39
69715;HTU21D;56981;53.532;49.398;2023-08-06T11:38:25;32.15;33.11
69715;HTU21D;56981;53.532;49.398;2023-08-06T11:40:52;32.13;33.12
69715;HTU21D;56981;53.532;49.398;2023-08-06T11:43:19;32.04;33.50
69715;HTU21D;56981;53.532;49.398;2023-08-06T11:45:49;31.99;33.11
69715;HTU21D;56981;53.532;49.398;2023-08-06T11:48:16;31.82;33.44
69715;HTU21D;56981;53.532;49.398;2023-08-06T11:50:44;31.84;33.85
69715;HTU21D;56981;53.532;49.398;2023-08-06T11:53:12;31.90;34.10
69715;HTU21D;56981;53.532;49.398;2023-08-06T11:55:40;31.88;33.49
69715;HTU21D;56981;53.532;49.398;2023-08-06T11:58:06;31.80;33.86
69715;HTU21D;56981;53.532;49.398;2023-08-06T12:00:32;31.79;32.96
69715;HTU21D;56981;53.532;49.398;2023-08-06T12:02:59;31.70;32.02
69715;HTU21D;56981;53.532;49.398;2023-08-06T12:05:32;31.64;32.56
69715;HTU21D;56981;53.532;49.398;2023-08-06T12:08:04;31.57;31.54
69715;HTU21D;56981;53.532;49.398;2023-08-06T12:10:31;31.56;30.83
69715;HTU21D;56981;53.532;49.398;2023-08-06T12:12:58;31.59;31.20
69715;HTU21D;56981;53.532;49.398;2023-08-06T12:15:25;31.57;30.56
69715;HTU21D;56981;53.532;49.398;2023-08-06T12:17:51;31.58;30.42
69715;HTU21D;56981;53.532;49.398;2023-08-06T12:20:18;31.53;30.24
69715;HTU21D;56981;53.532;49.398;2023-08-06T12:22:44;31.53;30.72
69715;HTU21D;56981;53.532;49.398;2023-08-06T12:25:12;31.55;30.38
69715;HTU21D;56981;53.532;49.398;2023-08-06T12:27:40;31.53;30.45
69715;HTU21D;56981;53.532;49.398;2023-08-06T12:30:07;31.55;29.93
69715;HTU21D;56981;53.532;49.398;2023-08-06T12:32:37;31.54;29.78
69715;HTU21D;56981;53.532;49.398;2023-08-06T12:35:04;31.57;30.25
69715;HTU21D;56981;53.532;49.398;2023-08-06T12:37:33;31.52;30.71
69715;HTU21D;56981;53.532;49.398;2023-08-06T12:40:00;31.54;31.08
69715;HTU21D;56981;53.532;49.398;2023-08-06T12:42:26;31.56;31.57
69715;HTU21D;56981;53.532;49.398;2023-08-06T12:44:52;31.60;31.37
69715;HTU21D;56981;53.532;49.398;2023-08-06T12:47:18;31.58;30.70
69715;HTU21D;56981;53.532;49.398;2023-08-06T12:49:45;31.55;30.38
69715;HTU21D;56981;53.532;49.398;2023-08-06T12:52:11;31.53;30.91
69715;HTU21D;56981;53.532;49.398;2023-08-06T12:54:41;31.49;29.87
69715;HTU21D;56981;53.532;49.398;2023-08-06T12:57:07;31.51;30.10
69715;HTU21D;56981;53.532;49.398;2023-08-06T12:59:34;31.51;30.12
69715;HTU21D;56981;53.532;49.398;2023-08-06T13:02:02;31.43;30.64
69715;HTU21D;56981;53.532;49.398;2023-08-06T13:04:28;31.42;30.92
69715;HTU21D;56981;53.532;49.398;2023-08-06T13:06:55;31.38;30.93
69715;HTU21D;56981;53.532;49.398;2023-08-06T13:09:21;31.35;31.22
69715;HTU21D;56981;53.532;49.398;2023-08-06T13:11:47;31.27;31.28
69715;HTU21D;56981;53.532;49.398;2023-08-06T13:14:16;31.34;31.73
69715;HTU21D;56981;53.532;49.398;2023-08-06T13:16:43;31.28;31.03
69715;HTU21D;56981;53.532;49.398;2023-08-06T13:19:10;31.34;31.40
69715;HTU21D;56981;53.532;49.398;2023-08-06T13:24:12;31.24;32.05
69715;HTU21D;56981;53.532;49.398;2023-08-06T13:26:38;31.19;32.63
69715;HTU21D;56981;53.532;49.398;2023-08-06T13:29:04;31.15;32.68
69715;HTU21D;56981;53.532;49.398;2023-08-06T13:31:33;31.15;32.89
69715;HTU21D;56981;53.532;49.398;2023-08-06T13:33:59;31.22;32.72
69715;HTU21D;56981;53.532;49.398;2023-08-06T13:36:26;31.20;32.31
69715;HTU21D;56981;53.532;49.398;2023-08-06T13:38:53;31.16;32.31
69715;HTU21D;56981;53.532;49.398;2023-08-06T13:41:19;31.14;32.67
69715;HTU21D;56981;53.532;49.398;2023-08-06T13:43:45;31.06;32.19
69715;HTU21D;56981;53.532;49.398;2023-08-06T13:46:12;31.08;32.60
69715;HTU21D;56981;53.532;49.398;2023-08-06T13:48:43;31.00;31.56
69715;HTU21D;56981;53.532;49.398;2023-08-06T13:51:10;31.00;31.75
69715;HTU21D;56981;53.532;49.398;2023-08-06T13:53:40;30.96;31.66
69715;HTU21D;56981;53.532;49.398;2023-08-06T13:56:08;30.90;31.93
69715;HTU21D;56981;53.532;49.398;2023-08-06T13:58:36;30.87;32.30
69715;HTU21D;56981;53.532;49.398;2023-08-06T14:01:03;30.84;32.25
69715;HTU21D;56981;53.532;49.398;2023-08-06T14:03:29;30.85;32.33
69715;HTU21D;56981;53.532;49.398;2023-08-06T14:05:55;30.77;32.02
69715;HTU21D;56981;53.532;49.398;2023-08-06T14:08:23;30.72;32.03
69715;HTU21D;56981;53.532;49.398;2023-08-06T14:10:50;30.72;32.37
69715;HTU21D;56981;53.532;49.398;2023-08-06T14:13:17;30.67;31.95
69715;HTU21D;56981;53.532;49.398;2023-08-06T14:15:44;30.63;32.38
69715;HTU21D;56981;53.532;49.398;2023-08-06T14:18:16;30.62;32.51
69715;HTU21D;56981;53.532;49.398;2023-08-06T14:20:43;30.55;32.93
69715;HTU21D;56981;53.532;49.398;2023-08-06T14:23:10;30.55;33.34
69715;HTU21D;56981;53.532;49.398;2023-08-06T14:25:37;30.51;33.67
69715;HTU21D;56981;53.532;49.398;2023-08-06T14:28:04;30.46;33.97
69715;HTU21D;56981;53.532;49.398;2023-08-06T14:30:32;30.44;34.17
69715;HTU21D;56981;53.532;49.398;2023-08-06T14:33:00;30.42;34.05
69715;HTU21D;56981;53.532;49.398;2023-08-06T14:35:26;30.40;34.14
69715;HTU21D;56981;53.532;49.398;2023-08-06T14:37:54;30.35;34.08
69715;HTU21D;56981;53.532;49.398;2023-08-06T14:40:20;30.35;34.50
69715;HTU21D;56981;53.532;49.398;2023-08-06T14:42:46;30.32;34.52
69715;HTU21D;56981;53.532;49.398;2023-08-06T14:45:13;30.30;34.82
69715;HTU21D;56981;53.532;49.398;2023-08-06T14:47:39;30.24;34.98
69715;HTU21D;56981;53.532;49.398;2023-08-06T14:50:05;30.18;35.42
69715;HTU21D;56981;53.532;49.398;2023-08-06T14:52:31;30.15;35.48
69715;HTU21D;56981;53.532;49.398;2023-08-06T14:55:00;30.13;35.56
69715;HTU21D;56981;53.532;49.398;2023-08-06T14:57:26;30.12;35.79
69715;HTU21D;56981;53.532;49.398;2023-08-06T14:59:54;30.08;36.11
69715;HTU21D;56981;53.532;49.398;2023-08-06T15:02:21;30.06;36.34
69715;HTU21D;56981;53.532;49.398;2023-08-06T15:04:48;30.02;36.35
69715;HTU21D;56981;53.532;49.398;2023-08-06T15:07:14;30.03;37.40
69715;HTU21D;56981;53.532;49.398;2023-08-06T15:09:40;29.94;36.74
69715;HTU21D;56981;53.532;49.398;2023-08-06T15:12:07;29.90;36.95
69715;HTU21D;56981;53.532;49.398;2023-08-06T15:14:33;29.82;37.40
69715;HTU21D;56981;53.532;49.398;2023-08-06T15:16:59;29.80;38.70
69715;HTU21D;56981;53.532;49.398;2023-08-06T15:19:26;29.74;38.45
69715;HTU21D;56981;53.532;49.398;2023-08-06T15:21:52;29.72;38.56
69715;HTU21D;56981;53.532;49.398;2023-08-06T15:24:18;29.64;38.43
69715;HTU21D;56981;53.532;49.398;2023-08-06T15:26:44;29.57;38.39
69715;HTU21D;56981;53.532;49.398;2023-08-06T15:29:11;29.53;38.76